Time;durP1;ratioP1;P1;durP2;ratioP2;P2;SDS_P1;SDS_P2;PMS_P1;PMS_P2;Temp;Humidity;BMP_temperature;BMP_pressure;BME280_temperature;BME280_humidity;BME280_pressure;Samples;Min_cycle;Max_cycle;Signal;HPM_P1;HPM_P2
2022/10/30 00:01:47;;;;;;;25.20;11.07;;;;;;;12.08;100.00;101678.69;5202510;28;20032;-75
2022/10/30 00:04:18;;;;;;;17.65;9.98;;;;;;;12.01;100.00;101674.94;5202447;28;20440;-75
2022/10/30 00:06:48;;;;;;;20.23;9.93;;;;;;;11.95;100.00;101679.09;5202760;28;20033;-76
2022/10/30 00:09:19;;;;;;;21.92;10.20;;;;;;;11.95;100.00;101679.09;5202576;28;20021;-76
2022/10/30 00:11:49;;;;;;;17.27;9.60;;;;;;;11.93;100.00;101675.69;5202709;28;20021;-76
2022/10/30 00:14:20;;;;;;;23.83;10.43;;;;;;;11.90;100.00;101676.88;5203444;28;20179;-76
2022/10/30 00:16:50;;;;;;;17.83;8.45;;;;;;;11.89;100.00;101680.53;5202603;28;20032;-76
2022/10/30 00:19:21;;;;;;;19.25;10.30;;;;;;;11.89;100.00;101674.31;5202461;28;20031;-76
2022/10/30 00:21:51;;;;;;;24.80;8.73;;;;;;;11.88;100.00;101672.63;5202052;28;20037;-75
2022/10/30 00:24:22;;;;;;;20.25;9.27;;;;;;;11.87;100.00;101669.09;5202435;28;20037;-75
2022/10/30 00:26:53;;;;;;;20.52;9.40;;;;;;;11.84;100.00;101664.03;5201403;28;20465;-75
2022/10/30 00:29:25;;;;;;;20.52;9.15;;;;;;;11.85;100.00;101665.72;5201176;28;20156;-75
2022/10/30 00:31:55;;;;;;;21.40;8.85;;;;;;;11.88;100.00;101662.72;5198529;28;20094;-75
2022/10/30 00:34:26;;;;;;;23.50;9.63;;;;;;;11.89;100.00;101659.03;5205792;28;20132;-75
2022/10/30 00:36:56;;;;;;;25.20;10.40;;;;;;;11.92;100.00;101663.25;5205540;28;20025;-75
2022/10/30 00:39:27;;;;;;;20.50;10.45;;;;;;;11.86;100.00;101663.88;5205884;28;20025;-75
2022/10/30 00:41:57;;;;;;;19.25;9.93;;;;;;;11.80;100.00;101667.16;5205863;28;20021;-75
2022/10/30 00:44:44;;;;;;;24.10;10.40;;;;;;;11.76;100.00;101671.16;5205685;28;20534;-73
2022/10/30 00:47:25;;;;;;;31.88;12.13;;;;;;;11.71;100.00;101663.56;5196206;28;20034;-73
2022/10/30 00:50:24;;;;;;;27.10;11.85;;;;;;;11.68;100.00;101669.22;5206209;28;20120;-74
2022/10/30 00:53:16;;;;;;;27.70;11.10;;;;;;;11.66;100.00;101657.78;5205177;28;20099;-75
2022/10/30 00:55:51;;;;;;;25.90;10.52;;;;;;;11.63;100.00;101667.00;5205577;28;20061;-75
2022/10/30 00:58:34;;;;;;;21.35;10.15;;;;;;;11.59;100.00;101662.06;5203969;28;20056;-74
2022/10/30 01:01:10;;;;;;;21.25;9.75;;;;;;;11.56;100.00;101663.25;5205115;28;20510;-74
2022/10/30 01:03:40;;;;;;;17.70;9.82;;;;;;;11.50;100.00;101655.78;5205814;28;20028;-74
2022/10/30 01:06:14;;;;;;;24.17;11.65;;;;;;;11.49;100.00;101664.00;5205390;28;20072;-75
2022/10/30 01:08:46;;;;;;;31.55;12.05;;;;;;;11.47;100.00;101666.00;5204723;28;20147;-75
2022/10/30 01:11:17;;;;;;;30.98;12.00;;;;;;;11.45;100.00;101660.78;5205147;28;20032;-74
2022/10/30 01:13:51;;;;;;;23.33;10.27;;;;;;;11.41;100.00;101662.06;5204838;28;20041;-75
2022/10/30 01:16:40;;;;;;;25.83;10.88;;;;;;;11.38;100.00;101665.06;5205134;28;20053;-75
2022/10/30 01:19:29;;;;;;;15.38;7.88;;;;;;;11.34;100.00;101669.03;5204694;28;20032;-75
2022/10/30 01:22:58;;;;;;;23.35;7.10;;;;;;;11.27;100.00;101668.81;5203252;28;20516;-74
2022/10/30 01:25:52;;;;;;;19.20;8.88;;;;;;;11.24;100.00;101679.00;5181838;28;20053;-75
2022/10/30 01:28:32;;;;;;;19.27;8.88;;;;;;;11.20;100.00;101680.31;5203981;28;20108;-74
2022/10/30 01:32:06;;;;;;;23.40;9.27;;;;;;;11.16;100.00;101674.38;5202161;28;20022;-75
2022/10/30 01:34:48;;;;;;;15.82;6.75;;;;;;;11.09;100.00;101675.97;5175144;28;20052;-75
2022/10/30 01:37:27;;;;;;;24.80;7.50;;;;;;;11.03;100.00;101677.41;5172567;28;20081;-74
2022/10/30 01:40:04;;;;;;;46.97;9.80;;;;;;;10.98;100.00;101679.69;5178749;28;20034;-75
2022/10/30 01:42:45;;;;;;;17.55;8.45;;;;;;;10.94;100.00;101672.94;5184229;28;20473;-75
2022/10/30 01:45:22;;;;;;;21.05;8.60;;;;;;;10.94;100.00;101677.44;5190040;28;20104;-75
2022/10/30 01:48:25;;;;;;;18.98;8.50;;;;;;;10.95;100.00;101682.69;5202196;28;20050;-74
2022/10/30 01:51:40;;;;;;;20.38;8.25;;;;;;;10.94;100.00;101686.34;5203811;28;20500;-75
2022/10/30 01:54:37;;;;;;;17.95;8.73;;;;;;;10.91;100.00;101681.28;5162438;28;20034;-74
2022/10/30 01:57:25;;;;;;;25.73;9.63;;;;;;;10.89;100.00;101684.13;5192726;28;20038;-75
2022/10/30 02:00:01;;;;;;;22.13;9.02;;;;;;;10.91;100.00;101691.19;5184789;28;20034;-75
2022/10/30 02:02:32;;;;;;;27.52;10.30;;;;;;;10.93;100.00;101687.34;5197882;28;20033;-75
2022/10/30 02:05:07;;;;;;;35.08;11.15;;;;;;;11.06;100.00;101687.88;5185362;28;20021;-75
2022/10/30 02:07:44;;;;;;;21.40;9.82;;;;;;;11.13;100.00;101678.19;5197565;28;20404;-75
2022/10/30 02:10:14;;;;;;;25.42;10.60;;;;;;;11.09;100.00;101679.53;5185152;28;20022;-76
2022/10/30 02:12:46;;;;;;;25.38;9.77;;;;;;;11.04;100.00;101672.88;5185039;28;20105;-75
2022/10/30 02:15:16;;;;;;;24.02;10.52;;;;;;;10.96;100.00;101681.69;5186272;28;20026;-75
2022/10/30 02:17:55;;;;;;;25.90;9.32;;;;;;;10.87;100.00;101680.75;5194548;28;20022;-75
2022/10/30 02:20:41;;;;;;;19.63;8.43;;;;;;;10.77;100.00;101682.63;5184925;28;20029;-75
2022/10/30 02:23:17;;;;;;;18.15;8.45;;;;;;;10.69;100.00;101676.28;5185019;28;20018;-76
2022/10/30 02:25:57;;;;;;;16.05;8.57;;;;;;;10.63;100.00;101677.72;5199395;28;20040;-74
2022/10/30 02:28:28;;;;;;;20.58;8.82;;;;;;;10.60;100.00;101681.56;5203517;28;20025;-74
2022/10/30 02:30:58;;;;;;;19.27;9.25;;;;;;;10.61;100.00;101677.88;5197435;28;20021;-75
2022/10/30 02:33:29;;;;;;;20.63;9.23;;;;;;;10.66;100.00;101682.81;5184961;28;20108;-74
2022/10/30 02:35:59;;;;;;;22.63;8.57;;;;;;;10.71;100.00;101683.22;5184634;28;20113;-75
2022/10/30 02:38:30;;;;;;;22.23;9.93;;;;;;;10.73;100.00;101683.91;5197163;28;20092;-75
2022/10/30 02:41:00;;;;;;;17.90;9.65;;;;;;;10.74;100.00;101684.75;5196820;28;20028;-75
2022/10/30 02:43:31;;;;;;;19.95;9.98;;;;;;;10.76;100.00;101678.25;5196352;28;20180;-75
2022/10/30 02:46:01;;;;;;;25.60;9.45;;;;;;;10.79;100.00;101685.13;5195414;28;20029;-76
2022/10/30 02:48:32;;;;;;;22.23;10.02;;;;;;;10.78;100.00;101672.72;5195654;28;20052;-75
2022/10/30 02:51:03;;;;;;;20.52;8.75;;;;;;;10.73;100.00;101673.16;5187140;28;20191;-76
2022/10/30 02:53:35;;;;;;;20.77;9.40;;;;;;;10.68;100.00;101667.38;5202079;28;20029;-76
2022/10/30 02:56:08;;;;;;;21.02;9.38;;;;;;;10.67;100.00;101672.91;5191064;28;20030;-75
2022/10/30 02:58:40;;;;;;;15.10;8.40;;;;;;;10.66;100.00;101666.69;5192052;28;20501;-75
2022/10/30 03:01:13;;;;;;;22.63;8.20;;;;;;;10.66;100.00;101660.50;5190053;28;20074;-75
2022/10/30 03:03:45;;;;;;;25.10;8.38;;;;;;;10.63;100.00;101670.50;5191645;28;20026;-76
2022/10/30 03:06:17;;;;;;;20.75;7.38;;;;;;;10.62;100.00;101673.34;5196638;28;20022;-74
2022/10/30 03:08:48;;;;;;;13.68;7.32;;;;;;;10.62;100.00;101670.66;5184946;28;20030;-75
2022/10/30 03:11:19;;;;;;;18.58;9.75;;;;;;;10.71;100.00;101677.00;5192212;28;20033;-76
2022/10/30 03:13:50;;;;;;;23.90;10.38;;;;;;;10.79;100.00;101679.78;5191452;28;20362;-74
2022/10/30 03:16:23;;;;;;;18.55;9.25;;;;;;;10.79;100.00;101674.41;5203447;28;20027;-74
2022/10/30 03:18:54;;;;;;;19.83;8.93;;;;;;;10.75;100.00;101679.25;5198183;28;20091;-75
2022/10/30 03:21:26;;;;;;;24.55;9.13;;;;;;;10.73;100.00;101673.16;5184760;28;20030;-74
2022/10/30 03:23:57;;;;;;;15.48;9.27;;;;;;;10.71;100.00;101679.69;5186587;28;20074;-76
2022/10/30 03:26:28;;;;;;;20.25;9.00;;;;;;;10.70;100.00;101686.91;5203353;28;20060;-74
2022/10/30 03:28:58;;;;;;;22.52;10.52;;;;;;;10.68;100.00;101685.34;5196397;28;20108;-75
2022/10/30 03:31:30;;;;;;;24.92;10.35;;;;;;;10.66;100.00;101682.81;5196305;28;20497;-75
2022/10/30 03:34:01;;;;;;;17.48;9.55;;;;;;;10.63;100.00;101689.28;5203675;28;20022;-75
2022/10/30 03:36:31;;;;;;;19.83;8.82;;;;;;;10.63;100.00;101696.50;5187042;28;20075;-75
2022/10/30 03:39:02;;;;;;;27.85;9.77;;;;;;;10.67;100.00;101697.06;5182885;28;20396;-75
2022/10/30 03:41:33;;;;;;;21.92;9.48;;;;;;;10.63;100.00;101697.34;5200008;28;20108;-75
2022/10/30 03:44:03;;;;;;;16.52;8.75;;;;;;;10.59;100.00;101695.09;5191884;28;20366;-75
2022/10/30 03:46:34;;;;;;;16.48;8.80;;;;;;;10.57;100.00;101694.41;5198517;28;20029;-75
2022/10/30 03:49:05;;;;;;;20.73;8.52;;;;;;;10.57;100.00;101691.72;5202830;28;20523;-74
2022/10/30 03:51:35;;;;;;;22.33;9.55;;;;;;;10.57;100.00;101694.41;5185756;28;20512;-74
2022/10/30 03:54:06;;;;;;;17.05;9.27;;;;;;;10.58;100.00;101688.03;5183949;28;20029;-75
2022/10/30 03:56:36;;;;;;;18.95;8.80;;;;;;;10.58;100.00;101694.25;5183910;28;20048;-75
2022/10/30 03:59:08;;;;;;;17.95;8.60;;;;;;;10.58;100.00;101683.53;5195527;28;20103;-75
2022/10/30 04:01:38;;;;;;;18.10;7.65;;;;;;;10.58;100.00;101686.19;5183811;28;20030;-75
2022/10/30 04:04:09;;;;;;;20.08;7.88;;;;;;;10.58;100.00;101685.34;5186191;28;20029;-75
2022/10/30 04:06:39;;;;;;;16.20;7.82;;;;;;;10.58;100.00;101680.00;5193309;28;20026;-74
2022/10/30 04:09:10;;;;;;;20.80;9.23;;;;;;;10.56;100.00;101680.16;5190382;28;20083;-75
2022/10/30 04:11:41;;;;;;;7.93;4.95;;;;;;;10.54;100.00;101684.84;5206873;28;20060;-75
2022/10/30 04:14:11;;;;;;;25.60;6.20;;;;;;;10.51;100.00;101673.53;5194638;28;20041;-75
2022/10/30 04:16:42;;;;;;;13.63;5.45;;;;;;;10.47;100.00;101669.44;5195269;28;20029;-74
2022/10/30 04:19:13;;;;;;;22.38;5.93;;;;;;;10.43;100.00;101668.88;5200446;28;20021;-75
2022/10/30 04:21:45;;;;;;;9.93;5.85;;;;;;;10.37;100.00;101656.06;5199662;28;20013;-75
2022/10/30 04:24:17;;;;;;;16.45;7.07;;;;;;;10.34;100.00;101654.53;5187144;28;20096;-75
2022/10/30 04:26:48;;;;;;;15.95;6.40;;;;;;;10.33;100.00;101657.34;5205384;28;20040;-75
2022/10/30 04:29:19;;;;;;;15.27;7.10;;;;;;;10.35;100.00;101660.72;5206279;28;20459;-74
2022/10/30 04:31:49;;;;;;;16.10;7.28;;;;;;;10.51;100.00;101663.66;5202901;28;20029;-74
2022/10/30 04:34:20;;;;;;;16.70;7.93;;;;;;;10.59;100.00;101663.78;5206573;28;20056;-74
2022/10/30 04:36:50;;;;;;;18.20;8.65;;;;;;;10.62;100.00;101671.50;5206467;28;20396;-75
2022/10/30 04:39:21;;;;;;;22.70;8.95;;;;;;;10.66;100.00;101669.38;5206489;28;20040;-75
2022/10/30 04:41:52;;;;;;;18.10;8.10;;;;;;;10.62;100.00;101671.50;5206401;28;20447;-74
2022/10/30 04:44:22;;;;;;;24.52;7.90;;;;;;;10.60;100.00;101669.97;5205876;28;20481;-75
2022/10/30 04:46:53;;;;;;;16.13;7.60;;;;;;;10.60;100.00;101667.28;5205498;28;20037;-75
2022/10/30 04:49:24;;;;;;;23.65;8.38;;;;;;;10.67;100.00;101665.72;5206148;28;20026;-75
2022/10/30 04:51:54;;;;;;;20.02;8.32;;;;;;;10.70;100.00;101665.41;5206234;28;20047;-75
2022/10/30 04:54:27;;;;;;;17.02;8.50;;;;;;;10.67;100.00;101656.81;5205885;28;20028;-75
2022/10/30 04:56:58;;;;;;;16.85;8.60;;;;;;;10.60;100.00;101661.94;5205645;28;20453;-76
2022/10/30 04:59:28;;;;;;;21.80;9.57;;;;;;;10.65;100.00;101656.13;5206209;28;20079;-75
2022/10/30 05:01:59;;;;;;;20.00;9.02;;;;;;;10.68;100.00;101655.81;5206058;28;20034;-75
2022/10/30 05:04:29;;;;;;;22.80;9.50;;;;;;;10.73;100.00;101664.25;5205714;28;20113;-75
2022/10/30 05:07:01;;;;;;;21.13;8.73;;;;;;;10.69;100.00;101661.03;5205163;28;20025;-75
2022/10/30 05:09:31;;;;;;;26.75;9.88;;;;;;;10.61;100.00;101656.41;5198378;28;20347;-74
2022/10/30 05:12:02;;;;;;;21.60;8.65;;;;;;;10.57;100.00;101660.38;5188213;28;20037;-75
2022/10/30 05:14:33;;;;;;;23.63;9.10;;;;;;;10.49;100.00;101649.53;5197473;28;20080;-74
2022/10/30 05:17:03;;;;;;;18.73;8.45;;;;;;;10.44;100.00;101661.66;5187861;28;20029;-74
2022/10/30 05:19:34;;;;;;;32.85;9.80;;;;;;;10.40;100.00;101657.63;5186301;28;20535;-73
2022/10/30 05:22:04;;;;;;;20.85;9.27;;;;;;;10.37;100.00;101658.75;5187789;28;20061;-73
2022/10/30 05:24:35;;;;;;;24.77;8.82;;;;;;;10.34;100.00;101649.16;5196442;28;20025;-73
2022/10/30 05:27:05;;;;;;;27.65;9.23;;;;;;;10.30;100.00;101654.97;5204615;28;20036;-74
2022/10/30 05:29:36;;;;;;;17.95;9.07;;;;;;;10.25;100.00;101655.38;5204945;28;20028;-73
2022/10/30 05:32:06;;;;;;;20.27;8.18;;;;;;;10.20;100.00;101649.56;5201593;28;20446;-75
2022/10/30 05:34:37;;;;;;;24.08;8.75;;;;;;;10.18;100.00;101637.28;5204274;28;20026;-74
2022/10/30 05:37:07;;;;;;;15.23;6.80;;;;;;;10.14;100.00;101647.47;5184829;28;20018;-75
2022/10/30 05:39:37;;;;;;;21.52;7.20;;;;;;;10.10;100.00;101649.59;5185790;28;20420;-74
2022/10/30 05:42:08;;;;;;;14.48;6.70;;;;;;;10.11;100.00;101648.59;5187435;28;20056;-74
2022/10/30 05:44:38;;;;;;;15.63;7.10;;;;;;;10.10;100.00;101646.91;5190346;28;20477;-75
2022/10/30 05:47:10;;;;;;;20.35;8.32;;;;;;;10.07;100.00;101649.03;5204151;28;20391;-75
2022/10/30 05:49:41;;;;;;;28.38;9.90;;;;;;;10.04;100.00;101658.22;5192736;28;20025;-75
2022/10/30 05:52:11;;;;;;;20.33;8.77;;;;;;;10.02;100.00;101651.28;5188635;28;20485;-75
2022/10/30 05:54:42;;;;;;;20.58;8.30;;;;;;;9.99;100.00;101652.44;5192624;28;20048;-72
2022/10/30 05:57:12;;;;;;;16.45;7.88;;;;;;;9.94;100.00;101649.34;5188024;28;20029;-75
2022/10/30 05:59:42;;;;;;;15.40;8.20;;;;;;;9.90;100.00;101647.09;5193438;28;20112;-74
2022/10/30 06:02:13;;;;;;;15.27;7.43;;;;;;;9.92;100.00;101653.13;5190653;28;20088;-74
2022/10/30 06:04:43;;;;;;;15.02;6.72;;;;;;;9.98;100.00;101650.72;5192334;28;20025;-74
2022/10/30 06:07:14;;;;;;;19.77;7.18;;;;;;;9.94;100.00;101653.81;5190392;28;20022;-74
2022/10/30 06:09:44;;;;;;;15.05;7.15;;;;;;;9.91;100.00;101652.28;5190611;28;20030;-74
2022/10/30 06:12:15;;;;;;;20.58;8.27;;;;;;;9.90;100.00;101647.09;5192089;28;20026;-74
2022/10/30 06:14:45;;;;;;;33.92;9.40;;;;;;;9.87;100.00;101645.53;5197871;28;20123;-74
2022/10/30 06:17:16;;;;;;;20.00;8.05;;;;;;;9.84;100.00;101635.94;5200787;28;20029;-73
2022/10/30 06:19:46;;;;;;;14.70;8.10;;;;;;;9.81;100.00;101630.00;5188198;28;20029;-74
2022/10/30 06:22:16;;;;;;;24.25;8.32;;;;;;;9.80;100.00;101631.84;5200999;28;20436;-74
2022/10/30 06:24:47;;;;;;;15.25;7.32;;;;;;;9.80;100.00;101639.88;5194441;28;20055;-74
2022/10/30 06:27:17;;;;;;;21.83;8.25;;;;;;;9.81;100.00;101635.38;5203729;28;20126;-74
2022/10/30 06:29:48;;;;;;;15.00;8.25;;;;;;;9.80;100.00;101637.22;5203337;28;20033;-74
2022/10/30 06:32:18;;;;;;;23.40;10.48;;;;;;;9.82;100.00;101640.59;5200200;28;20117;-74
2022/10/30 06:34:49;;;;;;;20.58;9.07;;;;;;;9.84;100.00;101635.94;5203685;28;20025;-72
2022/10/30 06:37:19;;;;;;;17.65;8.30;;;;;;;9.85;100.00;101634.94;5203408;28;20495;-72
2022/10/30 06:39:50;;;;;;;23.35;10.05;;;;;;;9.88;100.00;101636.47;5203607;28;20168;-73
2022/10/30 06:42:20;;;;;;;20.23;9.88;;;;;;;9.91;100.00;101649.63;5203774;28;20025;-72
2022/10/30 06:44:51;;;;;;;19.52;8.35;;;;;;;9.94;100.00;101643.09;5203650;28;20143;-72
2022/10/30 06:47:21;;;;;;;14.25;7.72;;;;;;;9.98;100.00;101640.00;5202768;28;20520;-73
2022/10/30 06:49:52;;;;;;;18.45;8.98;;;;;;;10.08;100.00;101643.50;5203423;28;20399;-73
2022/10/30 06:52:22;;;;;;;22.25;8.93;;;;;;;10.16;100.00;101640.13;5203604;28;20060;-73
2022/10/30 06:54:52;;;;;;;24.30;11.27;;;;;;;10.22;100.00;101636.84;5203153;28;20021;-72
2022/10/30 06:57:23;;;;;;;21.63;9.30;;;;;;;10.28;100.00;101625.56;5195797;28;20029;-73
2022/10/30 06:59:53;;;;;;;21.63;8.95;;;;;;;10.35;100.00;101628.53;5202962;28;20475;-73
2022/10/30 07:02:24;;;;;;;20.45;7.95;;;;;;;10.42;100.00;101631.47;5202772;28;20112;-72
2022/10/30 07:04:54;;;;;;;15.45;6.82;;;;;;;10.45;100.00;101632.03;5203104;28;20032;-73
2022/10/30 07:07:25;;;;;;;11.90;5.95;;;;;;;10.50;100.00;101648.53;5202967;28;20104;-73
2022/10/30 07:09:55;;;;;;;13.85;6.28;;;;;;;10.53;100.00;101650.91;5202637;28;20369;-73
2022/10/30 07:12:26;;;;;;;14.63;6.95;;;;;;;10.60;100.00;101635.94;5202904;28;20033;-71
2022/10/30 07:14:57;;;;;;;21.15;7.97;;;;;;;10.67;100.00;101635.34;5202864;28;20079;-73
2022/10/30 07:18:09;;;;;;;21.27;8.25;;;;;;;10.77;100.00;101634.31;5202099;28;20053;-73
2022/10/30 07:21:03;;;;;;;19.60;7.57;;;;;;;10.92;100.00;101637.34;5202913;28;20029;-73
2022/10/30 07:23:46;;;;;;;21.67;7.80;;;;;;;11.09;100.00;101638.38;5202760;28;20028;-73
2022/10/30 07:26:17;;;;;;;18.77;7.15;;;;;;;11.21;100.00;101647.09;5202862;28;20393;-73
2022/10/30 07:28:47;;;;;;;24.15;8.05;;;;;;;11.32;100.00;101636.97;5202707;28;20021;-73
2022/10/30 07:31:17;;;;;;;18.23;8.23;;;;;;;11.53;100.00;101625.06;5199523;28;20053;-73
2022/10/30 07:33:48;;;;;;;18.17;7.57;;;;;;;11.84;100.00;101621.00;5190326;28;20017;-73
2022/10/30 07:36:18;;;;;;;13.48;6.03;;;;;;;12.15;100.00;101625.97;5203045;28;20087;-73
2022/10/30 07:38:49;;;;;;;15.13;7.20;;;;;;;12.33;100.00;101631.28;5202970;28;20049;-73
2022/10/30 07:41:21;;;;;;;17.10;7.35;;;;;;;12.54;100.00;101638.97;5203332;28;20568;-73
2022/10/30 07:43:51;;;;;;;20.60;7.22;;;;;;;12.76;100.00;101627.66;5206983;28;20030;-73
2022/10/30 07:46:21;;;;;;;22.35;6.93;;;;;;;12.89;100.00;101630.72;5205051;28;20396;-73
2022/10/30 07:48:52;;;;;;;14.32;6.90;;;;;;;13.06;100.00;101623.56;5206553;28;20029;-73
2022/10/30 07:51:24;;;;;;;14.32;6.45;;;;;;;13.25;100.00;101618.91;5207042;28;20021;-73
2022/10/30 07:53:54;;;;;;;14.40;6.10;;;;;;;13.50;100.00;101628.72;5206469;28;20026;-71
2022/10/30 07:56:24;;;;;;;25.73;7.55;;;;;;;13.77;100.00;101632.97;5206377;28;20029;-71
2022/10/30 07:58:55;;;;;;;14.82;6.38;;;;;;;13.90;100.00;101633.28;5206466;28;20194;-73
2022/10/30 08:01:25;;;;;;;18.05;6.43;;;;;;;14.04;100.00;101642.56;5206886;28;20028;-74
2022/10/30 08:03:56;;;;;;;13.10;6.68;;;;;;;14.35;100.00;101645.41;5206864;28;20106;-73
2022/10/30 08:06:26;;;;;;;16.48;6.90;;;;;;;14.62;100.00;101643.38;5206254;28;20029;-74
2022/10/30 08:08:57;;;;;;;22.33;7.78;;;;;;;14.93;100.00;101643.41;5206140;28;20029;-73
2022/10/30 08:11:28;;;;;;;21.92;8.23;;;;;;;15.01;100.00;101646.09;5206606;28;20104;-74
2022/10/30 08:13:58;;;;;;;23.30;8.98;;;;;;;15.07;100.00;101647.25;5206770;28;20495;-73
2022/10/30 08:16:29;;;;;;;22.27;8.18;;;;;;;15.21;100.00;101647.34;5206308;28;20033;-73
2022/10/30 08:19:00;;;;;;;19.38;8.07;;;;;;;15.37;100.00;101645.56;5206136;28;20522;-73
2022/10/30 08:21:30;;;;;;;20.80;8.50;;;;;;;15.58;100.00;101634.09;5206755;28;20389;-74
2022/10/30 08:24:01;;;;;;;26.27;8.35;;;;;;;15.80;100.00;101644.09;5206327;28;20034;-74
2022/10/30 08:26:31;;;;;;;20.30;8.25;;;;;;;15.94;100.00;101642.47;5201395;28;20021;-74
2022/10/30 08:29:07;;;;;;;20.00;8.30;;;;;;;16.11;100.00;101641.28;5206220;28;20083;-74
2022/10/30 08:31:37;;;;;;;24.15;7.78;;;;;;;16.17;100.00;101643.28;5201867;28;20505;-74
2022/10/30 08:34:08;;;;;;;18.85;7.93;;;;;;;16.22;100.00;101640.84;5206090;28;20028;-74
2022/10/30 08:36:39;;;;;;;20.65;8.30;;;;;;;16.38;100.00;101631.72;5205731;28;20025;-74
2022/10/30 08:39:09;;;;;;;20.45;8.02;;;;;;;16.72;100.00;101627.66;5205718;28;20477;-74
2022/10/30 08:41:40;;;;;;;22.85;8.57;;;;;;;16.97;100.00;101631.75;5205418;28;20037;-74
2022/10/30 08:44:11;;;;;;;27.23;8.05;;;;;;;17.11;100.00;101638.16;5205808;28;20477;-74
2022/10/30 08:46:41;;;;;;;19.55;8.18;;;;;;;17.21;100.00;101643.28;5204832;28;20033;-72
2022/10/30 08:49:12;;;;;;;20.60;7.63;;;;;;;17.25;100.00;101644.56;5205508;28;20097;-72
2022/10/30 08:51:43;;;;;;;20.67;8.15;;;;;;;17.20;100.00;101641.59;5205906;28;20423;-72
2022/10/30 08:54:13;;;;;;;21.48;7.95;;;;;;;17.01;100.00;101637.59;5205075;28;20457;-72
2022/10/30 08:56:44;;;;;;;26.27;8.32;;;;;;;16.80;100.00;101638.38;5205480;28;20055;-71
2022/10/30 08:59:14;;;;;;;24.98;8.90;;;;;;;16.58;100.00;101637.44;5205117;28;20021;-72
2022/10/30 09:01:46;;;;;;;17.63;7.80;;;;;;;16.49;100.00;101649.38;5205856;28;20305;-72
2022/10/30 09:04:17;;;;;;;23.30;9.00;;;;;;;16.39;100.00;101655.06;5205335;28;20030;-72
2022/10/30 09:06:48;;;;;;;25.35;9.23;;;;;;;16.30;100.00;101659.72;5203617;28;20025;-72
2022/10/30 09:09:18;;;;;;;26.05;9.50;;;;;;;16.22;100.00;101662.50;5203823;28;20506;-74
2022/10/30 09:11:49;;;;;;;16.80;8.68;;;;;;;16.27;100.00;101657.38;5204051;28;20072;-74
2022/10/30 09:14:19;;;;;;;21.65;9.15;;;;;;;16.67;100.00;101663.41;5205717;28;20101;-74
2022/10/30 09:16:49;;;;;;;21.65;8.93;;;;;;;17.24;100.00;101651.03;5205124;28;20063;-74
2022/10/30 09:19:20;;;;;;;22.73;8.13;;;;;;;17.69;100.00;101644.44;5205035;28;20033;-74
2022/10/30 09:21:50;;;;;;;18.52;7.63;;;;;;;17.90;100.00;101646.31;5205081;28;20025;-74
2022/10/30 09:24:21;;;;;;;18.98;8.38;;;;;;;17.97;100.00;101651.81;5205393;28;20025;-74
2022/10/30 09:26:51;;;;;;;19.10;8.18;;;;;;;17.83;100.00;101640.00;5204447;28;20519;-74
2022/10/30 09:29:22;;;;;;;21.55;8.27;;;;;;;17.99;100.00;101638.91;5205204;28;20051;-74
2022/10/30 09:31:52;;;;;;;23.02;8.48;;;;;;;18.26;100.00;101646.19;5201863;28;20096;-74
2022/10/30 09:34:23;;;;;;;22.67;8.40;;;;;;;18.63;100.00;101639.56;5204978;28;20044;-74
2022/10/30 09:36:53;;;;;;;22.67;8.05;;;;;;;18.95;100.00;101641.84;5204634;28;20021;-75
2022/10/30 09:39:24;;;;;;;20.63;8.98;;;;;;;19.14;100.00;101644.66;5205096;28;20549;-75
2022/10/30 09:42:21;;;;;;;19.75;8.77;;;;;;;19.12;100.00;101654.88;5205229;28;20064;-74
2022/10/30 09:45:07;;;;;;;18.60;7.03;;;;;;;19.00;100.00;101648.34;5204694;28;20018;-75
2022/10/30 09:47:56;;;;;;;;;;;;;;;18.95;100.00;101650.84;5204553;28;20488;-74
2022/10/30 09:50:39;;;;;;;19.15;7.10;;;;;;;19.18;100.00;101636.94;5204793;28;19909;-75
2022/10/30 09:53:24;;;;;;;18.33;6.88;;;;;;;19.29;100.00;101628.16;5204875;28;20021;-74
2022/10/30 09:56:07;;;;;;;17.48;7.18;;;;;;;19.33;100.00;101634.06;5204472;28;20439;-75
2022/10/30 09:58:49;;;;;;;15.38;7.85;;;;;;;19.35;100.00;101635.50;5204017;28;20076;-75
2022/10/30 10:01:28;;;;;;;17.00;7.65;;;;;;;19.55;100.00;101634.72;5191485;28;20016;-75
2022/10/30 10:04:22;;;;;;;15.57;6.93;;;;;;;19.73;100.00;101635.00;5192624;28;20299;-75
2022/10/30 10:06:59;;;;;;;17.55;6.78;;;;;;;19.82;100.00;101641.91;5203119;28;20504;-75
2022/10/30 10:09:33;;;;;;;19.67;7.32;;;;;;;19.95;100.00;101638.34;5204272;28;20104;-75
2022/10/30 10:12:10;;;;;;;18.37;7.00;;;;;;;20.15;100.00;101635.63;5204307;28;20023;-75
2022/10/30 10:15:02;;;;;;;20.05;6.47;;;;;;;20.14;100.00;101640.25;5204380;28;20659;-75
2022/10/30 10:17:37;;;;;;;17.88;6.55;;;;;;;20.12;100.00;101636.88;5186456;28;20468;-75
2022/10/30 10:20:18;;;;;;;19.20;6.00;;;;;;;20.03;100.00;101642.75;5202815;28;20392;-75
2022/10/30 10:22:50;;;;;;;17.75;7.18;;;;;;;20.04;100.00;101645.28;5203886;28;20053;-75
2022/10/30 10:25:20;;;;;;;27.38;7.00;;;;;;;19.97;100.00;101646.31;5203440;28;20025;-75
2022/10/30 10:28:31;;;;;;;16.48;6.72;;;;;;;19.97;100.00;101646.31;5202932;28;20033;-75
2022/10/30 10:31:24;;;;;;;24.48;7.05;;;;;;;19.87;100.00;101644.84;5191824;28;20063;-75
2022/10/30 10:34:28;;;;;;;15.60;6.60;;;;;;;19.81;100.00;101636.66;5191484;28;20025;-75
2022/10/30 10:37:23;;;;;;;18.52;6.32;;;;;;;19.87;100.00;101636.66;5201855;28;20111;-75
2022/10/30 10:40:02;;;;;;;19.63;6.53;;;;;;;19.83;100.00;101637.28;5203567;28;20029;-75
2022/10/30 10:43:11;;;;;;;15.05;6.20;;;;;;;19.97;100.00;101632.69;5203182;28;20036;-75
2022/10/30 10:46:28;;;;;;;17.20;5.72;;;;;;;19.78;100.00;101637.06;5195946;28;20376;-75
2022/10/30 10:49:26;;;;;;;17.08;6.07;;;;;;;19.56;100.00;101641.84;5194782;28;20128;-75
2022/10/30 10:52:03;;;;;;;13.23;6.07;;;;;;;19.58;100.00;101639.75;5203497;28;20543;-75
2022/10/30 10:54:48;;;;;;;19.63;6.85;;;;;;;19.55;100.00;101634.72;5203855;28;20027;-75
2022/10/30 10:57:27;;;;;;;16.98;6.15;;;;;;;19.53;100.00;101634.06;5202643;28;20115;-75
2022/10/30 11:00:05;;;;;;;16.33;6.40;;;;;;;19.42;100.00;101636.34;5203297;28;20091;-75
2022/10/30 11:02:44;;;;;;;25.15;7.07;;;;;;;19.49;100.00;101630.09;5203318;28;20369;-75
2022/10/30 11:05:23;;;;;;;14.48;6.63;;;;;;;19.54;100.00;101622.16;5203369;28;20104;-75
2022/10/30 11:07:59;;;;;;;17.42;5.90;;;;;;;19.53;100.00;101631.34;5201404;28;20056;-75
2022/10/30 11:10:30;;;;;;;22.88;6.30;;;;;;;19.42;100.00;101620.03;5203361;28;20021;-75
2022/10/30 11:13:00;;;;;;;17.38;6.07;;;;;;;19.38;100.00;101615.22;5203203;28;20056;-75
2022/10/30 11:15:55;;;;;;;14.77;6.40;;;;;;;19.30;100.00;101624.41;5203259;28;20489;-74
2022/10/30 11:18:26;;;;;;;17.90;6.13;;;;;;;19.15;100.00;101631.88;5202639;28;20376;-75
2022/10/30 11:21:00;;;;;;;16.75;6.47;;;;;;;19.06;100.00;101627.66;5201851;28;20025;-75
2022/10/30 11:23:30;;;;;;;13.07;6.32;;;;;;;19.00;100.00;101623.03;5202955;28;20025;-75
2022/10/30 11:26:01;;;;;;;19.13;6.13;;;;;;;19.03;100.00;101620.78;5202972;28;20029;-75
2022/10/30 11:28:44;;;;;;;19.85;6.60;;;;;;;19.12;100.00;101622.25;5201863;28;20017;-75
2022/10/30 11:31:17;;;;;;;15.95;6.70;;;;;;;19.22;100.00;101623.75;5199771;28;20048;-74
2022/10/30 11:33:48;;;;;;;20.77;6.65;;;;;;;19.19;100.00;101625.00;5189990;28;20056;-74
2022/10/30 11:36:24;;;;;;;17.30;6.07;;;;;;;19.24;100.00;101619.78;5203099;28;20155;-75
2022/10/30 11:39:14;;;;;;;19.48;6.00;;;;;;;19.31;100.00;101626.06;5191064;28;20022;-75
2022/10/30 11:42:17;;;;;;;24.58;7.10;;;;;;;19.39;100.00;101625.91;5188397;28;20033;-75
2022/10/30 11:44:49;;;;;;;19.20;5.55;;;;;;;19.49;100.00;101630.09;5193983;28;20063;-75